sensor_id;sensor_type;location;lat;lon;timestamp;temperature;humidity
35613;DHT22;22054;51.646;7.078;2023-04-06T00:01:41;3.50;99.90
35613;DHT22;22054;51.646;7.078;2023-04-06T00:04:07;3.50;99.90
35613;DHT22;22054;51.646;7.078;2023-04-06T00:06:33;3.40;99.90
35613;DHT22;22054;51.646;7.078;2023-04-06T00:08:59;3.40;99.90
35613;DHT22;22054;51.646;7.078;2023-04-06T00:11:26;3.30;99.90
35613;DHT22;22054;51.646;7.078;2023-04-06T00:13:52;3.30;99.90
35613;DHT22;22054;51.646;7.078;2023-04-06T00:16:17;3.20;99.90
35613;DHT22;22054;51.646;7.078;2023-04-06T00:18:44;3.20;99.90
35613;DHT22;22054;51.646;7.078;2023-04-06T00:21:11;3.20;99.90
35613;DHT22;22054;51.646;7.078;2023-04-06T00:23:38;3.20;99.90
35613;DHT22;22054;51.646;7.078;2023-04-06T00:26:04;3.10;99.90
35613;DHT22;22054;51.646;7.078;2023-04-06T00:28:30;3.10;99.90
35613;DHT22;22054;51.646;7.078;2023-04-06T00:30:56;3.20;99.90
35613;DHT22;22054;51.646;7.078;2023-04-06T00:33:22;3.20;99.90
35613;DHT22;22054;51.646;7.078;2023-04-06T00:35:48;3.10;99.90
35613;DHT22;22054;51.646;7.078;2023-04-06T00:38:14;3.10;99.90
35613;DHT22;22054;51.646;7.078;2023-04-06T00:40:41;3.10;99.90
35613;DHT22;22054;51.646;7.078;2023-04-06T00:43:07;3.10;99.90
35613;DHT22;22054;51.646;7.078;2023-04-06T00:45:36;3.00;99.90
35613;DHT22;22054;51.646;7.078;2023-04-06T00:48:03;3.00;99.90
35613;DHT22;22054;51.646;7.078;2023-04-06T00:50:29;2.90;99.90
35613;DHT22;22054;51.646;7.078;2023-04-06T00:52:55;2.80;99.90
35613;DHT22;22054;51.646;7.078;2023-04-06T00:55:21;2.80;99.90
35613;DHT22;22054;51.646;7.078;2023-04-06T00:57:47;2.80;99.90
35613;DHT22;22054;51.646;7.078;2023-04-06T01:00:13;2.80;99.90
35613;DHT22;22054;51.646;7.078;2023-04-06T01:02:39;2.80;99.90
35613;DHT22;22054;51.646;7.078;2023-04-06T01:05:06;2.80;99.90
35613;DHT22;22054;51.646;7.078;2023-04-06T02:39:51;1.80;99.90
35613;DHT22;22054;51.646;7.078;2023-04-06T02:42:17;1.80;99.90
35613;DHT22;22054;51.646;7.078;2023-04-06T02:44:43;1.80;99.90
35613;DHT22;22054;51.646;7.078;2023-04-06T02:47:09;1.70;99.90
35613;DHT22;22054;51.646;7.078;2023-04-06T02:49:35;1.80;99.90
35613;DHT22;22054;51.646;7.078;2023-04-06T02:52:02;1.80;99.90
35613;DHT22;22054;51.646;7.078;2023-04-06T02:54:28;1.80;99.90
35613;DHT22;22054;51.646;7.078;2023-04-06T02:56:53;1.80;99.90
35613;DHT22;22054;51.646;7.078;2023-04-06T02:59:19;1.80;99.90
35613;DHT22;22054;51.646;7.078;2023-04-06T03:01:45;1.80;99.90
35613;DHT22;22054;51.646;7.078;2023-04-06T03:04:11;1.70;99.90
35613;DHT22;22054;51.646;7.078;2023-04-06T03:06:37;1.70;99.90
35613;DHT22;22054;51.646;7.078;2023-04-06T03:09:03;1.70;99.90
35613;DHT22;22054;51.646;7.078;2023-04-06T03:11:28;1.80;99.90
35613;DHT22;22054;51.646;7.078;2023-04-06T03:13:54;1.70;99.90
35613;DHT22;22054;51.646;7.078;2023-04-06T03:16:20;1.70;99.90
35613;DHT22;22054;51.646;7.078;2023-04-06T03:18:46;1.70;99.90
35613;DHT22;22054;51.646;7.078;2023-04-06T03:21:12;1.80;99.90
35613;DHT22;22054;51.646;7.078;2023-04-06T03:23:40;1.80;99.90
35613;DHT22;22054;51.646;7.078;2023-04-06T03:26:07;1.80;99.90
35613;DHT22;22054;51.646;7.078;2023-04-06T03:28:32;1.80;99.90
35613;DHT22;22054;51.646;7.078;2023-04-06T03:30:58;1.70;99.90
35613;DHT22;22054;51.646;7.078;2023-04-06T03:33:24;1.70;99.90
35613;DHT22;22054;51.646;7.078;2023-04-06T03:35:52;1.70;99.90
35613;DHT22;22054;51.646;7.078;2023-04-06T03:38:19;1.70;99.90
35613;DHT22;22054;51.646;7.078;2023-04-06T03:40:44;1.90;99.90
35613;DHT22;22054;51.646;7.078;2023-04-06T03:43:10;1.60;99.90
35613;DHT22;22054;51.646;7.078;2023-04-06T03:45:36;1.60;99.90
35613;DHT22;22054;51.646;7.078;2023-04-06T03:48:01;1.50;99.90
35613;DHT22;22054;51.646;7.078;2023-04-06T03:50:27;1.50;99.90
35613;DHT22;22054;51.646;7.078;2023-04-06T03:52:53;1.60;99.90
35613;DHT22;22054;51.646;7.078;2023-04-06T03:55:18;1.60;99.90
35613;DHT22;22054;51.646;7.078;2023-04-06T03:57:44;1.50;99.90
35613;DHT22;22054;51.646;7.078;2023-04-06T04:00:10;1.50;99.90
35613;DHT22;22054;51.646;7.078;2023-04-06T04:02:37;1.50;99.90
35613;DHT22;22054;51.646;7.078;2023-04-06T04:05:03;1.60;99.90
35613;DHT22;22054;51.646;7.078;2023-04-06T04:07:28;1.60;99.90
35613;DHT22;22054;51.646;7.078;2023-04-06T04:09:54;1.50;99.90
35613;DHT22;22054;51.646;7.078;2023-04-06T04:12:20;1.50;99.90
35613;DHT22;22054;51.646;7.078;2023-04-06T04:14:45;1.50;99.90
35613;DHT22;22054;51.646;7.078;2023-04-06T04:17:11;1.50;99.90
35613;DHT22;22054;51.646;7.078;2023-04-06T04:19:37;1.40;99.90
35613;DHT22;22054;51.646;7.078;2023-04-06T04:22:03;1.40;99.90
35613;DHT22;22054;51.646;7.078;2023-04-06T04:24:30;1.40;99.90
35613;DHT22;22054;51.646;7.078;2023-04-06T04:26:56;1.40;99.90
35613;DHT22;22054;51.646;7.078;2023-04-06T04:29:22;1.30;99.90
35613;DHT22;22054;51.646;7.078;2023-04-06T04:31:48;1.30;99.90
35613;DHT22;22054;51.646;7.078;2023-04-06T04:34:14;1.30;99.90
35613;DHT22;22054;51.646;7.078;2023-04-06T04:36:40;1.30;99.90
35613;DHT22;22054;51.646;7.078;2023-04-06T04:39:09;1.30;99.90
35613;DHT22;22054;51.646;7.078;2023-04-06T04:41:35;1.30;99.90
35613;DHT22;22054;51.646;7.078;2023-04-06T04:44:01;1.30;99.90
35613;DHT22;22054;51.646;7.078;2023-04-06T04:46:26;1.40;99.90
35613;DHT22;22054;51.646;7.078;2023-04-06T04:48:52;1.40;99.90
35613;DHT22;22054;51.646;7.078;2023-04-06T04:51:18;1.40;99.90
35613;DHT22;22054;51.646;7.078;2023-04-06T04:53:45;1.40;99.90
35613;DHT22;22054;51.646;7.078;2023-04-06T04:56:11;1.40;99.90
35613;DHT22;22054;51.646;7.078;2023-04-06T04:58:36;1.50;99.90
35613;DHT22;22054;51.646;7.078;2023-04-06T05:01:02;1.50;99.90
35613;DHT22;22054;51.646;7.078;2023-04-06T05:03:28;1.50;99.90
35613;DHT22;22054;51.646;7.078;2023-04-06T05:05:55;1.50;99.90
35613;DHT22;22054;51.646;7.078;2023-04-06T05:08:21;1.50;99.90
35613;DHT22;22054;51.646;7.078;2023-04-06T05:10:47;1.60;99.90
35613;DHT22;22054;51.646;7.078;2023-04-06T05:13:13;1.60;99.90
35613;DHT22;22054;51.646;7.078;2023-04-06T05:15:40;1.60;99.90
35613;DHT22;22054;51.646;7.078;2023-04-06T05:18:08;1.70;99.90
35613;DHT22;22054;51.646;7.078;2023-04-06T05:20:34;1.70;99.90
35613;DHT22;22054;51.646;7.078;2023-04-06T05:23:01;1.70;99.90
35613;DHT22;22054;51.646;7.078;2023-04-06T05:25:27;1.80;99.90
35613;DHT22;22054;51.646;7.078;2023-04-06T05:27:53;1.80;99.90
35613;DHT22;22054;51.646;7.078;2023-04-06T05:30:20;1.80;99.90
35613;DHT22;22054;51.646;7.078;2023-04-06T05:32:46;1.90;99.90
35613;DHT22;22054;51.646;7.078;2023-04-06T05:35:13;1.90;99.90
35613;DHT22;22054;51.646;7.078;2023-04-06T05:37:39;2.00;99.90
35613;DHT22;22054;51.646;7.078;2023-04-06T05:40:05;2.10;99.90
35613;DHT22;22054;51.646;7.078;2023-04-06T05:42:42;2.10;99.90
35613;DHT22;22054;51.646;7.078;2023-04-06T05:45:09;2.20;99.90
35613;DHT22;22054;51.646;7.078;2023-04-06T05:47:48;2.30;99.90
35613;DHT22;22054;51.646;7.078;2023-04-06T05:50:15;2.40;99.90
35613;DHT22;22054;51.646;7.078;2023-04-06T05:52:41;2.50;99.90
35613;DHT22;22054;51.646;7.078;2023-04-06T05:55:09;2.60;99.90
35613;DHT22;22054;51.646;7.078;2023-04-06T05:57:35;2.60;99.90
35613;DHT22;22054;51.646;7.078;2023-04-06T06:00:01;2.70;99.90
35613;DHT22;22054;51.646;7.078;2023-04-06T06:02:32;2.80;99.90
35613;DHT22;22054;51.646;7.078;2023-04-06T06:04:58;2.90;99.90
35613;DHT22;22054;51.646;7.078;2023-04-06T06:07:24;3.00;99.90
35613;DHT22;22054;51.646;7.078;2023-04-06T06:09:50;3.00;99.90
35613;DHT22;22054;51.646;7.078;2023-04-06T06:12:16;3.10;99.90
35613;DHT22;22054;51.646;7.078;2023-04-06T06:14:41;3.30;99.90
35613;DHT22;22054;51.646;7.078;2023-04-06T06:17:08;3.40;99.90
35613;DHT22;22054;51.646;7.078;2023-04-06T06:19:33;3.60;99.90
35613;DHT22;22054;51.646;7.078;2023-04-06T06:21:59;3.70;99.90
35613;DHT22;22054;51.646;7.078;2023-04-06T06:24:27;3.80;99.90
35613;DHT22;22054;51.646;7.078;2023-04-06T06:26:53;4.00;99.90
35613;DHT22;22054;51.646;7.078;2023-04-06T06:29:19;4.20;99.90
35613;DHT22;22054;51.646;7.078;2023-04-06T06:31:45;4.40;99.90
35613;DHT22;22054;51.646;7.078;2023-04-06T06:34:10;4.50;99.90
35613;DHT22;22054;51.646;7.078;2023-04-06T06:36:38;4.80;99.90
35613;DHT22;22054;51.646;7.078;2023-04-06T06:39:03;5.00;99.90
35613;DHT22;22054;51.646;7.078;2023-04-06T06:41:29;5.10;99.90
35613;DHT22;22054;51.646;7.078;2023-04-06T06:43:55;5.20;99.90
35613;DHT22;22054;51.646;7.078;2023-04-06T06:46:20;5.40;99.90
35613;DHT22;22054;51.646;7.078;2023-04-06T06:48:46;5.40;99.90
35613;DHT22;22054;51.646;7.078;2023-04-06T06:51:12;5.60;99.90
35613;DHT22;22054;51.646;7.078;2023-04-06T06:53:38;5.70;99.90
35613;DHT22;22054;51.646;7.078;2023-04-06T06:56:03;5.80;99.90
35613;DHT22;22054;51.646;7.078;2023-04-06T06:58:29;5.80;99.90
35613;DHT22;22054;51.646;7.078;2023-04-06T07:00:58;5.90;99.90
35613;DHT22;22054;51.646;7.078;2023-04-06T07:03:24;6.10;99.90
35613;DHT22;22054;51.646;7.078;2023-04-06T07:05:50;5.90;99.90
35613;DHT22;22054;51.646;7.078;2023-04-06T07:08:23;6.30;99.90
35613;DHT22;22054;51.646;7.078;2023-04-06T07:10:51;6.50;99.90
35613;DHT22;22054;51.646;7.078;2023-04-06T07:13:18;6.60;99.90
35613;DHT22;22054;51.646;7.078;2023-04-06T07:15:48;6.70;99.90
35613;DHT22;22054;51.646;7.078;2023-04-06T07:18:14;6.80;99.90
35613;DHT22;22054;51.646;7.078;2023-04-06T07:20:40;6.90;99.90
35613;DHT22;22054;51.646;7.078;2023-04-06T07:23:06;7.00;99.90
35613;DHT22;22054;51.646;7.078;2023-04-06T07:25:32;7.20;99.90
35613;DHT22;22054;51.646;7.078;2023-04-06T07:27:57;7.20;99.90
35613;DHT22;22054;51.646;7.078;2023-04-06T07:30:23;7.40;99.90
35613;DHT22;22054;51.646;7.078;2023-04-06T07:32:51;7.50;99.90
35613;DHT22;22054;51.646;7.078;2023-04-06T07:35:17;7.50;99.90
35613;DHT22;22054;51.646;7.078;2023-04-06T07:37:43;7.60;99.90
35613;DHT22;22054;51.646;7.078;2023-04-06T07:40:09;7.70;99.90
35613;DHT22;22054;51.646;7.078;2023-04-06T07:42:35;7.80;99.90
35613;DHT22;22054;51.646;7.078;2023-04-06T07:45:01;8.00;99.90
35613;DHT22;22054;51.646;7.078;2023-04-06T07:47:26;8.20;99.90
35613;DHT22;22054;51.646;7.078;2023-04-06T07:49:54;8.30;99.90
35613;DHT22;22054;51.646;7.078;2023-04-06T07:52:21;8.50;99.90
35613;DHT22;22054;51.646;7.078;2023-04-06T07:54:47;8.60;99.90
35613;DHT22;22054;51.646;7.078;2023-04-06T07:57:14;8.60;99.90
35613;DHT22;22054;51.646;7.078;2023-04-06T07:59:40;8.80;99.90
35613;DHT22;22054;51.646;7.078;2023-04-06T08:02:06;9.00;99.90
35613;DHT22;22054;51.646;7.078;2023-04-06T08:04:32;9.10;99.90
35613;DHT22;22054;51.646;7.078;2023-04-06T08:06:57;9.20;99.90
35613;DHT22;22054;51.646;7.078;2023-04-06T08:09:23;9.40;99.90
35613;DHT22;22054;51.646;7.078;2023-04-06T08:11:49;9.50;99.90
35613;DHT22;22054;51.646;7.078;2023-04-06T08:14:15;9.60;99.90
35613;DHT22;22054;51.646;7.078;2023-04-06T08:16:41;9.80;99.90
35613;DHT22;22054;51.646;7.078;2023-04-06T08:19:07;10.20;99.90
35613;DHT22;22054;51.646;7.078;2023-04-06T08:21:38;10.70;99.90
35613;DHT22;22054;51.646;7.078;2023-04-06T08:24:05;11.00;99.90
35613;DHT22;22054;51.646;7.078;2023-04-06T08:26:31;11.20;99.90
35613;DHT22;22054;51.646;7.078;2023-04-06T08:28:57;11.20;99.90
35613;DHT22;22054;51.646;7.078;2023-04-06T08:31:23;11.30;99.90
35613;DHT22;22054;51.646;7.078;2023-04-06T08:33:48;11.80;99.90
35613;DHT22;22054;51.646;7.078;2023-04-06T08:36:15;12.00;97.90
35613;DHT22;22054;51.646;7.078;2023-04-06T08:38:42;12.20;98.70
35613;DHT22;22054;51.646;7.078;2023-04-06T08:41:09;12.20;98.40
35613;DHT22;22054;51.646;7.078;2023-04-06T08:43:58;12.30;98.40
35613;DHT22;22054;51.646;7.078;2023-04-06T08:46:25;12.60;95.10
35613;DHT22;22054;51.646;7.078;2023-04-06T08:48:56;13.10;93.90
35613;DHT22;22054;51.646;7.078;2023-04-06T08:51:24;13.50;92.80
35613;DHT22;22054;51.646;7.078;2023-04-06T08:53:53;13.80;91.80
35613;DHT22;22054;51.646;7.078;2023-04-06T08:56:27;13.90;90.50
35613;DHT22;22054;51.646;7.078;2023-04-06T08:58:54;14.10;84.20
35613;DHT22;22054;51.646;7.078;2023-04-06T09:01:23;14.20;82.70
35613;DHT22;22054;51.646;7.078;2023-04-06T09:03:51;14.60;81.30
35613;DHT22;22054;51.646;7.078;2023-04-06T09:06:21;14.80;79.30
35613;DHT22;22054;51.646;7.078;2023-04-06T09:08:47;14.70;81.10
35613;DHT22;22054;51.646;7.078;2023-04-06T09:11:14;14.80;76.50
35613;DHT22;22054;51.646;7.078;2023-04-06T09:13:52;15.00;75.30
35613;DHT22;22054;51.646;7.078;2023-04-06T09:16:19;15.10;73.20
35613;DHT22;22054;51.646;7.078;2023-04-06T09:18:46;14.80;75.80
35613;DHT22;22054;51.646;7.078;2023-04-06T09:21:12;14.50;74.10
35613;DHT22;22054;51.646;7.078;2023-04-06T09:23:38;14.30;73.90
35613;DHT22;22054;51.646;7.078;2023-04-06T09:26:15;14.30;72.30
35613;DHT22;22054;51.646;7.078;2023-04-06T09:28:46;14.50;73.80
35613;DHT22;22054;51.646;7.078;2023-04-06T09:31:16;14.50;72.70
35613;DHT22;22054;51.646;7.078;2023-04-06T09:33:44;14.60;72.30
35613;DHT22;22054;51.646;7.078;2023-04-06T09:36:11;14.60;70.70
35613;DHT22;22054;51.646;7.078;2023-04-06T09:41:25;14.80;74.90
35613;DHT22;22054;51.646;7.078;2023-04-06T09:43:52;14.70;73.90
35613;DHT22;22054;51.646;7.078;2023-04-06T09:46:31;14.60;72.10
35613;DHT22;22054;51.646;7.078;2023-04-06T09:49:01;14.70;70.40
35613;DHT22;22054;51.646;7.078;2023-04-06T09:51:31;14.60;68.80
35613;DHT22;22054;51.646;7.078;2023-04-06T09:54:01;14.70;70.30
35613;DHT22;22054;51.646;7.078;2023-04-06T09:56:33;14.90;69.70
35613;DHT22;22054;51.646;7.078;2023-04-06T09:59:09;14.90;73.40
35613;DHT22;22054;51.646;7.078;2023-04-06T10:01:46;14.80;71.20
35613;DHT22;22054;51.646;7.078;2023-04-06T10:04:29;15.10;67.60
35613;DHT22;22054;51.646;7.078;2023-04-06T10:07:02;15.20;66.10
35613;DHT22;22054;51.646;7.078;2023-04-06T10:09:29;15.20;64.00
35613;DHT22;22054;51.646;7.078;2023-04-06T10:12:03;15.80;62.60
35613;DHT22;22054;51.646;7.078;2023-04-06T10:14:34;17.00;58.70
35613;DHT22;22054;51.646;7.078;2023-04-06T10:17:03;17.70;55.40
35613;DHT22;22054;51.646;7.078;2023-04-06T10:19:37;18.60;56.20
35613;DHT22;22054;51.646;7.078;2023-04-06T10:22:08;19.00;53.80
35613;DHT22;22054;51.646;7.078;2023-04-06T10:24:36;18.50;51.70
35613;DHT22;22054;51.646;7.078;2023-04-06T10:27:03;18.20;53.30
35613;DHT22;22054;51.646;7.078;2023-04-06T10:29:45;17.70;54.20
35613;DHT22;22054;51.646;7.078;2023-04-06T10:32:14;17.80;52.70
35613;DHT22;22054;51.646;7.078;2023-04-06T10:34:40;18.40;52.50
35613;DHT22;22054;51.646;7.078;2023-04-06T10:37:15;17.60;51.80
35613;DHT22;22054;51.646;7.078;2023-04-06T10:39:53;16.80;55.80
35613;DHT22;22054;51.646;7.078;2023-04-06T10:42:25;16.80;55.20
35613;DHT22;22054;51.646;7.078;2023-04-06T10:45:05;16.90;54.50
35613;DHT22;22054;51.646;7.078;2023-04-06T10:47:41;17.40;53.50
35613;DHT22;22054;51.646;7.078;2023-04-06T10:50:07;18.20;53.80
35613;DHT22;22054;51.646;7.078;2023-04-06T10:52:33;19.30;50.10
35613;DHT22;22054;51.646;7.078;2023-04-06T10:54:59;20.20;49.20
35613;DHT22;22054;51.646;7.078;2023-04-06T10:57:28;19.80;47.50
35613;DHT22;22054;51.646;7.078;2023-04-06T10:59:56;18.70;50.10
35613;DHT22;22054;51.646;7.078;2023-04-06T11:02:21;18.20;50.90
35613;DHT22;22054;51.646;7.078;2023-04-06T11:04:57;18.00;50.30
35613;DHT22;22054;51.646;7.078;2023-04-06T11:07:25;18.20;50.20
35613;DHT22;22054;51.646;7.078;2023-04-06T11:09:52;18.40;51.60
35613;DHT22;22054;51.646;7.078;2023-04-06T11:12:25;18.60;50.70
35613;DHT22;22054;51.646;7.078;2023-04-06T11:14:59;18.70;50.60
35613;DHT22;22054;51.646;7.078;2023-04-06T11:17:33;18.80;50.70
35613;DHT22;22054;51.646;7.078;2023-04-06T11:20:02;19.00;50.20
35613;DHT22;22054;51.646;7.078;2023-04-06T11:22:29;19.00;51.20
35613;DHT22;22054;51.646;7.078;2023-04-06T11:25:08;19.00;52.40
35613;DHT22;22054;51.646;7.078;2023-04-06T11:27:34;18.00;50.40
35613;DHT22;22054;51.646;7.078;2023-04-06T11:30:01;18.20;52.20
35613;DHT22;22054;51.646;7.078;2023-04-06T11:32:28;18.40;51.50
35613;DHT22;22054;51.646;7.078;2023-04-06T11:34:53;18.50;51.80
35613;DHT22;22054;51.646;7.078;2023-04-06T11:37:19;18.70;53.20
35613;DHT22;22054;51.646;7.078;2023-04-06T11:39:50;18.20;52.70
35613;DHT22;22054;51.646;7.078;2023-04-06T11:42:24;17.80;53.70
35613;DHT22;22054;51.646;7.078;2023-04-06T11:44:53;17.40;54.10
35613;DHT22;22054;51.646;7.078;2023-04-06T11:47:20;17.20;54.40
35613;DHT22;22054;51.646;7.078;2023-04-06T11:49:53;17.20;53.60
35613;DHT22;22054;51.646;7.078;2023-04-06T11:52:26;17.10;53.80
35613;DHT22;22054;51.646;7.078;2023-04-06T11:54:53;17.10;54.00
35613;DHT22;22054;51.646;7.078;2023-04-06T11:57:22;17.20;55.10
35613;DHT22;22054;51.646;7.078;2023-04-06T11:59:51;17.50;55.00
35613;DHT22;22054;51.646;7.078;2023-04-06T12:02:17;17.30;55.30
35613;DHT22;22054;51.646;7.078;2023-04-06T12:04:43;17.10;55.60
35613;DHT22;22054;51.646;7.078;2023-04-06T12:07:09;17.20;54.80
35613;DHT22;22054;51.646;7.078;2023-04-06T12:09:35;16.90;55.90
35613;DHT22;22054;51.646;7.078;2023-04-06T12:12:04;16.90;56.40
35613;DHT22;22054;51.646;7.078;2023-04-06T12:14:30;17.00;56.70
35613;DHT22;22054;51.646;7.078;2023-04-06T12:16:59;17.30;56.70
35613;DHT22;22054;51.646;7.078;2023-04-06T12:19:25;17.50;55.50
35613;DHT22;22054;51.646;7.078;2023-04-06T12:21:55;17.70;54.00
35613;DHT22;22054;51.646;7.078;2023-04-06T12:24:22;17.50;54.90
35613;DHT22;22054;51.646;7.078;2023-04-06T12:26:48;16.70;56.30
35613;DHT22;22054;51.646;7.078;2023-04-06T12:29:14;16.60;56.30
35613;DHT22;22054;51.646;7.078;2023-04-06T12:31:40;17.10;57.10
35613;DHT22;22054;51.646;7.078;2023-04-06T12:34:08;17.70;57.40
35613;DHT22;22054;51.646;7.078;2023-04-06T12:36:33;18.30;55.50
35613;DHT22;22054;51.646;7.078;2023-04-06T12:39:00;18.50;55.90
35613;DHT22;22054;51.646;7.078;2023-04-06T12:41:28;19.10;55.20
35613;DHT22;22054;51.646;7.078;2023-04-06T12:43:54;19.00;52.50
35613;DHT22;22054;51.646;7.078;2023-04-06T12:46:19;18.20;53.30
35613;DHT22;22054;51.646;7.078;2023-04-06T12:48:45;17.60;54.20
35613;DHT22;22054;51.646;7.078;2023-04-06T12:51:11;17.20;56.20
35613;DHT22;22054;51.646;7.078;2023-04-06T12:53:37;17.10;55.20
35613;DHT22;22054;51.646;7.078;2023-04-06T12:56:14;16.90;58.00
35613;DHT22;22054;51.646;7.078;2023-04-06T12:58:41;16.80;58.60
35613;DHT22;22054;51.646;7.078;2023-04-06T13:01:07;16.60;57.90
35613;DHT22;22054;51.646;7.078;2023-04-06T13:03:33;15.90;57.50
35613;DHT22;22054;51.646;7.078;2023-04-06T13:06:02;15.50;58.90
35613;DHT22;22054;51.646;7.078;2023-04-06T13:08:28;15.40;60.90
35613;DHT22;22054;51.646;7.078;2023-04-06T13:10:54;15.30;62.50
35613;DHT22;22054;51.646;7.078;2023-04-06T13:13:25;15.00;64.60
35613;DHT22;22054;51.646;7.078;2023-04-06T13:15:53;15.00;67.50
35613;DHT22;22054;51.646;7.078;2023-04-06T13:18:21;15.00;67.30
35613;DHT22;22054;51.646;7.078;2023-04-06T13:20:48;14.70;68.80
35613;DHT22;22054;51.646;7.078;2023-04-06T13:23:14;14.70;69.20
35613;DHT22;22054;51.646;7.078;2023-04-06T13:25:40;14.80;68.50
35613;DHT22;22054;51.646;7.078;2023-04-06T13:28:06;14.70;69.50
35613;DHT22;22054;51.646;7.078;2023-04-06T13:30:33;14.50;71.30
35613;DHT22;22054;51.646;7.078;2023-04-06T13:32:58;14.40;71.20
35613;DHT22;22054;51.646;7.078;2023-04-06T13:35:24;14.40;73.80
35613;DHT22;22054;51.646;7.078;2023-04-06T13:37:50;14.40;72.00
35613;DHT22;22054;51.646;7.078;2023-04-06T13:40:17;14.50;71.10
35613;DHT22;22054;51.646;7.078;2023-04-06T13:42:44;14.30;71.00
35613;DHT22;22054;51.646;7.078;2023-04-06T13:45:11;14.40;72.90
35613;DHT22;22054;51.646;7.078;2023-04-06T13:47:37;14.00;73.70
35613;DHT22;22054;51.646;7.078;2023-04-06T13:50:09;14.10;75.10
35613;DHT22;22054;51.646;7.078;2023-04-06T13:52:36;14.20;75.60
35613;DHT22;22054;51.646;7.078;2023-04-06T13:57:51;14.20;78.10
35613;DHT22;22054;51.646;7.078;2023-04-06T14:00:17;14.20;77.40
35613;DHT22;22054;51.646;7.078;2023-04-06T14:02:43;14.10;77.20
35613;DHT22;22054;51.646;7.078;2023-04-06T14:05:09;14.10;78.90
35613;DHT22;22054;51.646;7.078;2023-04-06T14:07:35;14.00;80.70
35613;DHT22;22054;51.646;7.078;2023-04-06T14:10:02;13.90;79.80
35613;DHT22;22054;51.646;7.078;2023-04-06T14:12:28;13.60;81.70
35613;DHT22;22054;51.646;7.078;2023-04-06T14:14:54;13.30;85.40
35613;DHT22;22054;51.646;7.078;2023-04-06T14:17:19;13.10;89.90
35613;DHT22;22054;51.646;7.078;2023-04-06T14:19:45;13.00;92.80
35613;DHT22;22054;51.646;7.078;2023-04-06T14:22:12;13.00;93.60
35613;DHT22;22054;51.646;7.078;2023-04-06T14:24:38;13.20;1.00
35613;DHT22;22054;51.646;7.078;2023-04-06T14:27:04;13.20;1.00
35613;DHT22;22054;51.646;7.078;2023-04-06T14:29:30;13.20;99.90
35613;DHT22;22054;51.646;7.078;2023-04-06T14:31:55;13.10;1.00
35613;DHT22;22054;51.646;7.078;2023-04-06T14:34:26;13.10;1.00
35613;DHT22;22054;51.646;7.078;2023-04-06T14:36:52;13.00;99.90
35613;DHT22;22054;51.646;7.078;2023-04-06T14:39:18;13.00;99.90
35613;DHT22;22054;51.646;7.078;2023-04-06T14:41:43;12.90;99.90
35613;DHT22;22054;51.646;7.078;2023-04-06T14:44:10;12.70;1.00
35613;DHT22;22054;51.646;7.078;2023-04-06T14:46:37;12.60;99.90
35613;DHT22;22054;51.646;7.078;2023-04-06T14:49:03;12.50;1.00
35613;DHT22;22054;51.646;7.078;2023-04-06T14:51:29;12.60;1.00
35613;DHT22;22054;51.646;7.078;2023-04-06T14:53:55;12.60;1.00
35613;DHT22;22054;51.646;7.078;2023-04-06T14:56:23;12.70;1.00
35613;DHT22;22054;51.646;7.078;2023-04-06T14:58:50;12.80;1.00
35613;DHT22;22054;51.646;7.078;2023-04-06T15:01:18;12.60;99.90
35613;DHT22;22054;51.646;7.078;2023-04-06T15:03:46;12.60;1.00
35613;DHT22;22054;51.646;7.078;2023-04-06T15:06:13;12.60;1.00
35613;DHT22;22054;51.646;7.078;2023-04-06T15:08:43;12.60;1.00
35613;DHT22;22054;51.646;7.078;2023-04-06T15:11:10;12.70;1.00
35613;DHT22;22054;51.646;7.078;2023-04-06T15:13:37;12.50;1.00
35613;DHT22;22054;51.646;7.078;2023-04-06T15:16:04;12.40;1.00
35613;DHT22;22054;51.646;7.078;2023-04-06T15:18:30;12.30;1.00
35613;DHT22;22054;51.646;7.078;2023-04-06T15:20:56;12.20;99.90
35613;DHT22;22054;51.646;7.078;2023-04-06T15:23:22;12.30;99.90
35613;DHT22;22054;51.646;7.078;2023-04-06T15:25:47;12.20;99.90
35613;DHT22;22054;51.646;7.078;2023-04-06T15:28:13;12.00;99.90
35613;DHT22;22054;51.646;7.078;2023-04-06T15:30:39;12.00;1.00
35613;DHT22;22054;51.646;7.078;2023-04-06T15:33:07;12.00;1.00
35613;DHT22;22054;51.646;7.078;2023-04-06T15:35:34;11.90;99.90
35613;DHT22;22054;51.646;7.078;2023-04-06T15:38:05;11.70;99.90
35613;DHT22;22054;51.646;7.078;2023-04-06T15:40:31;11.70;99.90
35613;DHT22;22054;51.646;7.078;2023-04-06T15:42:59;11.70;99.90
35613;DHT22;22054;51.646;7.078;2023-04-06T15:45:27;11.70;99.90
35613;DHT22;22054;51.646;7.078;2023-04-06T15:47:53;11.60;99.90
35613;DHT22;22054;51.646;7.078;2023-04-06T15:50:18;11.40;99.90
35613;DHT22;22054;51.646;7.078;2023-04-06T15:52:44;11.40;99.90
35613;DHT22;22054;51.646;7.078;2023-04-06T15:55:10;11.40;99.90
35613;DHT22;22054;51.646;7.078;2023-04-06T15:57:36;11.40;99.90
35613;DHT22;22054;51.646;7.078;2023-04-06T16:00:03;11.40;99.90
35613;DHT22;22054;51.646;7.078;2023-04-06T16:02:30;11.50;99.90
35613;DHT22;22054;51.646;7.078;2023-04-06T16:04:56;11.50;99.90
35613;DHT22;22054;51.646;7.078;2023-04-06T16:07:23;11.40;99.90
35613;DHT22;22054;51.646;7.078;2023-04-06T16:09:50;11.40;99.90
35613;DHT22;22054;51.646;7.078;2023-04-06T16:12:17;11.30;99.90
35613;DHT22;22054;51.646;7.078;2023-04-06T16:14:43;11.30;99.90
35613;DHT22;22054;51.646;7.078;2023-04-06T16:17:10;11.20;99.90
35613;DHT22;22054;51.646;7.078;2023-04-06T16:19:36;11.00;99.90
35613;DHT22;22054;51.646;7.078;2023-04-06T16:22:02;10.70;99.90
35613;DHT22;22054;51.646;7.078;2023-04-06T16:24:28;10.40;99.90
35613;DHT22;22054;51.646;7.078;2023-04-06T16:26:54;10.20;99.90
35613;DHT22;22054;51.646;7.078;2023-04-06T16:29:22;9.80;99.90
35613;DHT22;22054;51.646;7.078;2023-04-06T16:31:47;9.80;99.90
35613;DHT22;22054;51.646;7.078;2023-04-06T16:34:13;9.70;99.90
35613;DHT22;22054;51.646;7.078;2023-04-06T16:36:39;9.60;99.90
35613;DHT22;22054;51.646;7.078;2023-04-06T16:39:06;9.50;99.90
35613;DHT22;22054;51.646;7.078;2023-04-06T16:41:34;9.40;99.90
35613;DHT22;22054;51.646;7.078;2023-04-06T16:44:04;9.40;99.90
35613;DHT22;22054;51.646;7.078;2023-04-06T16:46:34;9.20;99.90
35613;DHT22;22054;51.646;7.078;2023-04-06T16:49:03;9.10;99.90
35613;DHT22;22054;51.646;7.078;2023-04-06T16:51:31;9.00;99.90
35613;DHT22;22054;51.646;7.078;2023-04-06T16:53:57;9.00;99.90
35613;DHT22;22054;51.646;7.078;2023-04-06T16:56:23;9.00;99.90
35613;DHT22;22054;51.646;7.078;2023-04-06T16:58:49;9.00;99.90
35613;DHT22;22054;51.646;7.078;2023-04-06T17:01:24;9.10;99.90
35613;DHT22;22054;51.646;7.078;2023-04-06T17:03:51;9.20;99.90
35613;DHT22;22054;51.646;7.078;2023-04-06T17:06:18;9.10;99.90
35613;DHT22;22054;51.646;7.078;2023-04-06T17:08:45;9.10;99.90
35613;DHT22;22054;51.646;7.078;2023-04-06T17:11:15;9.00;99.90
35613;DHT22;22054;51.646;7.078;2023-04-06T17:13:42;8.80;99.90
35613;DHT22;22054;51.646;7.078;2023-04-06T17:16:08;8.80;99.90
35613;DHT22;22054;51.646;7.078;2023-04-06T17:18:35;8.80;99.90